sensor_id;sensor_type;location;lat;lon;timestamp;pressure;altitude;pressure_sealevel;temperature;humidity
21658;BME280;10990;48.174;9.782;2023-06-10T00:02:11;95327.06;;;16.33;100.00
21658;BME280;10990;48.174;9.782;2023-06-10T00:04:38;95337.41;;;16.36;100.00
21658;BME280;10990;48.174;9.782;2023-06-10T00:07:06;95335.16;;;16.40;100.00
21658;BME280;10990;48.174;9.782;2023-06-10T00:09:34;95341.31;;;16.40;100.00
21658;BME280;10990;48.174;9.782;2023-06-10T00:12:02;95345.44;;;16.43;100.00
21658;BME280;10990;48.174;9.782;2023-06-10T00:14:29;95341.94;;;16.42;100.00
21658;BME280;10990;48.174;9.782;2023-06-10T00:16:56;95345.72;;;16.54;100.00
21658;BME280;10990;48.174;9.782;2023-06-10T00:19:23;95356.81;;;16.51;100.00
21658;BME280;10990;48.174;9.782;2023-06-10T00:21:51;95341.22;;;16.55;100.00
21658;BME280;10990;48.174;9.782;2023-06-10T00:24:20;95349.47;;;16.10;100.00
21658;BME280;10990;48.174;9.782;2023-06-10T00:26:47;95346.09;;;16.02;100.00
21658;BME280;10990;48.174;9.782;2023-06-10T00:29:14;95343.78;;;15.92;100.00
21658;BME280;10990;48.174;9.782;2023-06-10T00:31:41;95347.13;;;15.79;100.00
21658;BME280;10990;48.174;9.782;2023-06-10T00:34:08;95338.16;;;15.51;100.00
21658;BME280;10990;48.174;9.782;2023-06-10T00:36:34;95330.88;;;15.38;100.00
21658;BME280;10990;48.174;9.782;2023-06-10T00:39:02;95329.16;;;15.15;100.00
21658;BME280;10990;48.174;9.782;2023-06-10T00:41:30;95308.22;;;14.97;100.00
21658;BME280;10990;48.174;9.782;2023-06-10T00:43:59;95321.84;;;14.88;100.00
21658;BME280;10990;48.174;9.782;2023-06-10T00:46:26;95315.88;;;14.71;100.00
21658;BME280;10990;48.174;9.782;2023-06-10T00:48:55;95306.56;;;14.67;100.00
21658;BME280;10990;48.174;9.782;2023-06-10T00:51:22;95287.94;;;14.67;100.00
21658;BME280;10990;48.174;9.782;2023-06-10T00:53:49;95287.28;;;14.50;100.00
21658;BME280;10990;48.174;9.782;2023-06-10T00:56:16;95273.66;;;14.53;100.00
21658;BME280;10990;48.174;9.782;2023-06-10T00:58:44;95271.69;;;14.47;100.00
21658;BME280;10990;48.174;9.782;2023-06-10T01:01:11;95258.00;;;14.35;100.00
21658;BME280;10990;48.174;9.782;2023-06-10T01:03:39;95259.09;;;14.26;100.00
21658;BME280;10990;48.174;9.782;2023-06-10T01:06:10;95254.22;;;14.15;100.00
21658;BME280;10990;48.174;9.782;2023-06-10T01:08:42;95244.34;;;14.23;100.00
21658;BME280;10990;48.174;9.782;2023-06-10T01:11:27;95237.91;;;14.03;100.00
21658;BME280;10990;48.174;9.782;2023-06-10T01:13:58;95231.69;;;14.25;100.00
21658;BME280;10990;48.174;9.782;2023-06-10T01:16:25;95222.47;;;14.13;100.00
21658;BME280;10990;48.174;9.782;2023-06-10T01:18:52;95209.00;;;14.00;100.00
21658;BME280;10990;48.174;9.782;2023-06-10T01:21:22;95203.50;;;14.16;100.00
21658;BME280;10990;48.174;9.782;2023-06-10T01:23:50;95202.22;;;14.12;100.00
21658;BME280;10990;48.174;9.782;2023-06-10T01:26:18;95201.22;;;14.13;100.00
21658;BME280;10990;48.174;9.782;2023-06-10T01:28:51;95201.22;;;14.28;100.00
21658;BME280;10990;48.174;9.782;2023-06-10T01:31:30;95209.66;;;14.31;100.00
21658;BME280;10990;48.174;9.782;2023-06-10T01:34:00;95214.31;;;14.44;100.00
21658;BME280;10990;48.174;9.782;2023-06-10T01:36:30;95217.81;;;14.30;100.00
21658;BME280;10990;48.174;9.782;2023-06-10T01:38:59;95218.75;;;14.52;100.00
21658;BME280;10990;48.174;9.782;2023-06-10T01:41:27;95227.63;;;14.44;100.00
21658;BME280;10990;48.174;9.782;2023-06-10T01:43:55;95228.28;;;14.46;100.00
21658;BME280;10990;48.174;9.782;2023-06-10T01:46:22;95224.06;;;14.22;100.00
21658;BME280;10990;48.174;9.782;2023-06-10T01:48:48;95218.09;;;14.35;100.00
21658;BME280;10990;48.174;9.782;2023-06-10T01:51:15;95228.75;;;14.20;100.00
21658;BME280;10990;48.174;9.782;2023-06-10T01:53:43;95226.88;;;13.91;100.00
21658;BME280;10990;48.174;9.782;2023-06-10T01:56:10;95223.63;;;13.81;100.00
21658;BME280;10990;48.174;9.782;2023-06-10T01:58:42;95220.31;;;13.64;100.00
21658;BME280;10990;48.174;9.782;2023-06-10T02:01:10;95214.22;;;13.55;100.00
21658;BME280;10990;48.174;9.782;2023-06-10T02:03:37;95208.97;;;13.47;100.00
21658;BME280;10990;48.174;9.782;2023-06-10T02:06:04;95208.63;;;13.27;100.00
21658;BME280;10990;48.174;9.782;2023-06-10T02:08:31;95192.16;;;13.32;100.00
21658;BME280;10990;48.174;9.782;2023-06-10T02:11:01;95179.00;;;13.38;100.00
21658;BME280;10990;48.174;9.782;2023-06-10T02:13:29;95188.88;;;13.30;100.00
21658;BME280;10990;48.174;9.782;2023-06-10T02:15:55;95182.06;;;13.04;100.00
21658;BME280;10990;48.174;9.782;2023-06-10T02:18:22;95169.03;;;13.40;100.00
21658;BME280;10990;48.174;9.782;2023-06-10T02:20:49;95160.41;;;13.38;100.00
21658;BME280;10990;48.174;9.782;2023-06-10T02:23:16;95157.31;;;13.50;100.00
21658;BME280;10990;48.174;9.782;2023-06-10T02:25:43;95153.88;;;13.64;100.00
21658;BME280;10990;48.174;9.782;2023-06-10T02:28:11;95162.69;;;13.79;100.00
21658;BME280;10990;48.174;9.782;2023-06-10T02:30:39;95164.22;;;13.74;100.00
21658;BME280;10990;48.174;9.782;2023-06-10T02:33:06;95155.63;;;13.72;100.00
21658;BME280;10990;48.174;9.782;2023-06-10T02:35:37;95163.38;;;13.58;100.00
21658;BME280;10990;48.174;9.782;2023-06-10T02:38:04;95159.34;;;13.62;100.00
21658;BME280;10990;48.174;9.782;2023-06-10T02:40:32;95162.75;;;13.71;100.00
21658;BME280;10990;48.174;9.782;2023-06-10T02:42:59;95145.25;;;13.62;100.00
21658;BME280;10990;48.174;9.782;2023-06-10T02:45:27;95152.31;;;13.70;100.00
21658;BME280;10990;48.174;9.782;2023-06-10T02:47:56;95147.66;;;13.72;100.00
21658;BME280;10990;48.174;9.782;2023-06-10T02:50:23;95144.44;;;13.76;100.00
21658;BME280;10990;48.174;9.782;2023-06-10T02:53:10;95158.81;;;13.52;100.00
21658;BME280;10990;48.174;9.782;2023-06-10T02:55:41;95164.03;;;13.60;100.00
21658;BME280;10990;48.174;9.782;2023-06-10T02:58:11;95164.13;;;13.52;100.00
21658;BME280;10990;48.174;9.782;2023-06-10T03:00:40;95160.97;;;13.49;100.00
21658;BME280;10990;48.174;9.782;2023-06-10T03:03:09;95147.00;;;13.32;100.00
21658;BME280;10990;48.174;9.782;2023-06-10T03:05:45;95145.59;;;13.44;100.00
21658;BME280;10990;48.174;9.782;2023-06-10T03:08:12;95144.63;;;13.37;100.00
21658;BME280;10990;48.174;9.782;2023-06-10T03:10:41;95144.13;;;13.18;100.00
21658;BME280;10990;48.174;9.782;2023-06-10T03:13:09;95137.47;;;13.60;100.00
21658;BME280;10990;48.174;9.782;2023-06-10T03:15:36;95147.44;;;13.58;100.00
21658;BME280;10990;48.174;9.782;2023-06-10T03:18:09;95132.41;;;13.65;100.00
21658;BME280;10990;48.174;9.782;2023-06-10T03:20:36;95141.97;;;13.89;100.00
21658;BME280;10990;48.174;9.782;2023-06-10T03:23:04;95164.19;;;13.97;100.00
21658;BME280;10990;48.174;9.782;2023-06-10T03:25:33;95183.03;;;14.02;100.00
21658;BME280;10990;48.174;9.782;2023-06-10T03:28:00;95177.72;;;13.87;100.00
21658;BME280;10990;48.174;9.782;2023-06-10T03:30:28;95185.59;;;13.80;100.00
21658;BME280;10990;48.174;9.782;2023-06-10T03:32:55;95191.84;;;13.87;100.00
21658;BME280;10990;48.174;9.782;2023-06-10T03:35:26;95177.81;;;13.79;100.00
21658;BME280;10990;48.174;9.782;2023-06-10T03:37:53;95165.78;;;13.68;100.00
21658;BME280;10990;48.174;9.782;2023-06-10T03:40:20;95155.34;;;13.66;100.00
21658;BME280;10990;48.174;9.782;2023-06-10T03:42:47;95139.19;;;13.68;100.00
21658;BME280;10990;48.174;9.782;2023-06-10T03:45:16;95103.56;;;13.92;100.00
21658;BME280;10990;48.174;9.782;2023-06-10T03:47:44;95065.78;;;14.11;100.00
21658;BME280;10990;48.174;9.782;2023-06-10T03:50:15;95055.22;;;14.18;100.00
21658;BME280;10990;48.174;9.782;2023-06-10T03:52:45;95037.63;;;14.17;100.00
21658;BME280;10990;48.174;9.782;2023-06-10T03:55:13;95033.06;;;14.32;100.00
21658;BME280;10990;48.174;9.782;2023-06-10T03:57:43;95018.94;;;14.32;100.00
21658;BME280;10990;48.174;9.782;2023-06-10T04:00:12;95010.81;;;14.55;100.00
21658;BME280;10990;48.174;9.782;2023-06-10T04:02:41;95015.41;;;14.46;100.00
21658;BME280;10990;48.174;9.782;2023-06-10T04:05:16;94995.06;;;14.39;100.00
21658;BME280;10990;48.174;9.782;2023-06-10T04:07:43;94981.16;;;14.37;100.00
21658;BME280;10990;48.174;9.782;2023-06-10T04:10:11;94970.56;;;14.43;100.00
21658;BME280;10990;48.174;9.782;2023-06-10T04:12:38;94986.41;;;14.51;100.00
21658;BME280;10990;48.174;9.782;2023-06-10T04:15:06;94979.34;;;14.59;100.00
21658;BME280;10990;48.174;9.782;2023-06-10T04:17:34;94971.66;;;14.70;100.00
21658;BME280;10990;48.174;9.782;2023-06-10T04:20:01;94976.84;;;14.78;100.00
21658;BME280;10990;48.174;9.782;2023-06-10T04:22:29;94987.31;;;14.80;100.00
21658;BME280;10990;48.174;9.782;2023-06-10T04:24:56;94993.44;;;14.80;100.00
21658;BME280;10990;48.174;9.782;2023-06-10T04:27:26;94985.66;;;14.79;100.00
21658;BME280;10990;48.174;9.782;2023-06-10T04:29:53;94987.59;;;14.92;100.00
21658;BME280;10990;48.174;9.782;2023-06-10T04:32:20;94984.75;;;14.93;100.00
21658;BME280;10990;48.174;9.782;2023-06-10T04:34:47;94983.16;;;14.99;100.00
21658;BME280;10990;48.174;9.782;2023-06-10T04:37:17;94988.78;;;15.11;100.00
21658;BME280;10990;48.174;9.782;2023-06-10T04:39:44;94988.81;;;15.17;100.00
21658;BME280;10990;48.174;9.782;2023-06-10T04:42:11;94990.03;;;15.15;100.00
21658;BME280;10990;48.174;9.782;2023-06-10T04:44:40;95001.16;;;15.25;100.00
21658;BME280;10990;48.174;9.782;2023-06-10T04:47:08;95001.81;;;15.34;100.00
21658;BME280;10990;48.174;9.782;2023-06-10T04:49:35;95000.50;;;15.51;100.00
21658;BME280;10990;48.174;9.782;2023-06-10T04:52:02;95009.66;;;15.70;100.00
21658;BME280;10990;48.174;9.782;2023-06-10T04:54:33;95033.53;;;15.85;100.00
21658;BME280;10990;48.174;9.782;2023-06-10T04:57:00;95036.66;;;15.95;100.00
21658;BME280;10990;48.174;9.782;2023-06-10T04:59:26;95056.38;;;16.01;100.00
21658;BME280;10990;48.174;9.782;2023-06-10T05:01:55;95055.22;;;16.17;100.00
21658;BME280;10990;48.174;9.782;2023-06-10T05:04:22;95066.31;;;16.13;100.00
21658;BME280;10990;48.174;9.782;2023-06-10T05:06:49;95070.22;;;16.24;100.00
21658;BME280;10990;48.174;9.782;2023-06-10T05:09:15;95071.09;;;16.38;100.00
21658;BME280;10990;48.174;9.782;2023-06-10T05:11:42;95070.34;;;16.57;100.00
21658;BME280;10990;48.174;9.782;2023-06-10T05:14:10;95075.34;;;16.80;100.00
21658;BME280;10990;48.174;9.782;2023-06-10T05:16:37;95088.56;;;16.95;100.00
21658;BME280;10990;48.174;9.782;2023-06-10T05:19:05;95113.13;;;16.71;100.00
21658;BME280;10990;48.174;9.782;2023-06-10T05:21:31;95109.00;;;16.75;100.00
21658;BME280;10990;48.174;9.782;2023-06-10T05:23:58;95117.34;;;16.52;100.00
21658;BME280;10990;48.174;9.782;2023-06-10T05:26:25;95108.91;;;17.23;100.00
21658;BME280;10990;48.174;9.782;2023-06-10T05:28:52;95130.31;;;17.69;100.00
21658;BME280;10990;48.174;9.782;2023-06-10T05:31:19;95153.19;;;17.79;100.00
21658;BME280;10990;48.174;9.782;2023-06-10T05:33:46;95186.91;;;17.73;100.00
21658;BME280;10990;48.174;9.782;2023-06-10T05:36:14;95173.53;;;17.46;100.00
21658;BME280;10990;48.174;9.782;2023-06-10T05:38:41;95179.69;;;17.67;100.00
21658;BME280;10990;48.174;9.782;2023-06-10T05:41:08;95179.69;;;18.07;100.00
21658;BME280;10990;48.174;9.782;2023-06-10T05:43:35;95204.97;;;18.44;100.00
21658;BME280;10990;48.174;9.782;2023-06-10T05:46:02;95227.66;;;18.15;100.00
21658;BME280;10990;48.174;9.782;2023-06-10T05:48:28;95229.13;;;17.91;100.00
21658;BME280;10990;48.174;9.782;2023-06-10T05:50:55;95225.41;;;18.12;100.00
21658;BME280;10990;48.174;9.782;2023-06-10T05:53:23;95212.00;;;19.10;100.00
21658;BME280;10990;48.174;9.782;2023-06-10T05:55:50;95242.19;;;18.72;100.00
21658;BME280;10990;48.174;9.782;2023-06-10T05:58:17;95270.91;;;18.45;100.00
21658;BME280;10990;48.174;9.782;2023-06-10T06:00:44;95266.34;;;18.46;100.00
21658;BME280;10990;48.174;9.782;2023-06-10T06:03:11;95269.00;;;18.66;100.00
21658;BME280;10990;48.174;9.782;2023-06-10T06:05:38;95286.53;;;18.55;100.00
21658;BME280;10990;48.174;9.782;2023-06-10T06:08:05;95280.63;;;19.18;100.00
21658;BME280;10990;48.174;9.782;2023-06-10T06:10:34;95309.25;;;19.31;100.00
21658;BME280;10990;48.174;9.782;2023-06-10T06:13:01;95329.16;;;19.55;100.00
21658;BME280;10990;48.174;9.782;2023-06-10T06:15:28;95335.06;;;19.18;100.00
21658;BME280;10990;48.174;9.782;2023-06-10T06:17:55;95340.91;;;19.99;100.00
21658;BME280;10990;48.174;9.782;2023-06-10T06:20:22;95371.25;;;20.06;100.00
21658;BME280;10990;48.174;9.782;2023-06-10T06:22:49;95381.97;;;20.37;100.00
21658;BME280;10990;48.174;9.782;2023-06-10T06:25:16;95396.41;;;20.11;100.00
21658;BME280;10990;48.174;9.782;2023-06-10T06:27:44;95407.44;;;19.97;100.00
21658;BME280;10990;48.174;9.782;2023-06-10T06:30:11;95406.75;;;20.40;100.00
21658;BME280;10990;48.174;9.782;2023-06-10T06:32:38;95414.13;;;20.51;100.00
21658;BME280;10990;48.174;9.782;2023-06-10T06:35:05;95413.22;;;20.64;100.00
21658;BME280;10990;48.174;9.782;2023-06-10T06:37:33;95427.94;;;20.61;100.00
21658;BME280;10990;48.174;9.782;2023-06-10T06:40:15;95429.75;;;20.67;100.00
21658;BME280;10990;48.174;9.782;2023-06-10T06:42:41;95444.84;;;20.93;100.00
21658;BME280;10990;48.174;9.782;2023-06-10T06:45:16;95457.84;;;20.96;100.00
21658;BME280;10990;48.174;9.782;2023-06-10T06:47:43;95450.59;;;22.02;100.00
21658;BME280;10990;48.174;9.782;2023-06-10T06:50:10;95470.09;;;22.16;100.00
21658;BME280;10990;48.174;9.782;2023-06-10T06:52:37;95479.28;;;23.29;100.00
21658;BME280;10990;48.174;9.782;2023-06-10T06:55:04;95499.16;;;22.63;100.00
21658;BME280;10990;48.174;9.782;2023-06-10T06:57:31;95495.94;;;22.05;100.00
21658;BME280;10990;48.174;9.782;2023-06-10T06:59:58;95497.28;;;22.63;100.00
21658;BME280;10990;48.174;9.782;2023-06-10T07:02:27;95503.56;;;22.27;100.00
21658;BME280;10990;48.174;9.782;2023-06-10T07:04:54;95498.63;;;22.24;100.00
21658;BME280;10990;48.174;9.782;2023-06-10T07:07:21;95497.84;;;23.37;100.00
21658;BME280;10990;48.174;9.782;2023-06-10T07:09:48;95507.50;;;22.73;100.00
21658;BME280;10990;48.174;9.782;2023-06-10T07:12:15;95513.50;;;23.05;100.00
21658;BME280;10990;48.174;9.782;2023-06-10T07:14:43;95512.81;;;23.33;100.00
21658;BME280;10990;48.174;9.782;2023-06-10T07:17:10;95496.63;;;23.10;100.00
21658;BME280;10990;48.174;9.782;2023-06-10T07:19:38;95511.34;;;22.65;100.00
21658;BME280;10990;48.174;9.782;2023-06-10T07:22:05;95511.94;;;23.86;100.00
21658;BME280;10990;48.174;9.782;2023-06-10T07:24:32;95513.47;;;23.82;100.00
21658;BME280;10990;48.174;9.782;2023-06-10T07:26:59;95519.09;;;23.81;100.00
21658;BME280;10990;48.174;9.782;2023-06-10T07:29:25;95521.41;;;23.30;100.00
21658;BME280;10990;48.174;9.782;2023-06-10T07:31:52;95525.72;;;23.31;100.00
21658;BME280;10990;48.174;9.782;2023-06-10T07:34:19;95518.47;;;24.14;100.00
21658;BME280;10990;48.174;9.782;2023-06-10T07:36:47;95525.75;;;23.66;100.00
21658;BME280;10990;48.174;9.782;2023-06-10T07:39:14;95508.81;;;24.70;100.00
21658;BME280;10990;48.174;9.782;2023-06-10T07:41:41;95515.22;;;25.26;100.00
21658;BME280;10990;48.174;9.782;2023-06-10T07:44:08;95517.25;;;25.19;100.00
21658;BME280;10990;48.174;9.782;2023-06-10T07:46:34;95517.53;;;24.89;100.00
21658;BME280;10990;48.174;9.782;2023-06-10T07:49:01;95522.50;;;24.80;100.00
21658;BME280;10990;48.174;9.782;2023-06-10T07:51:28;95512.22;;;25.40;100.00
21658;BME280;10990;48.174;9.782;2023-06-10T07:53:57;95513.44;;;24.87;100.00
21658;BME280;10990;48.174;9.782;2023-06-10T07:56:23;95512.81;;;25.13;100.00
21658;BME280;10990;48.174;9.782;2023-06-10T07:58:51;95510.38;;;25.62;100.00
21658;BME280;10990;48.174;9.782;2023-06-10T08:01:18;95515.84;;;25.67;100.00
21658;BME280;10990;48.174;9.782;2023-06-10T08:03:44;95506.03;;;26.88;100.00
21658;BME280;10990;48.174;9.782;2023-06-10T08:06:11;95520.66;;;26.82;100.00
21658;BME280;10990;48.174;9.782;2023-06-10T08:08:38;95508.22;;;25.81;100.00
21658;BME280;10990;48.174;9.782;2023-06-10T08:11:08;95524.31;;;24.23;100.00
21658;BME280;10990;48.174;9.782;2023-06-10T08:13:35;95507.09;;;25.60;100.00
21658;BME280;10990;48.174;9.782;2023-06-10T08:16:02;95507.03;;;25.38;100.00
21658;BME280;10990;48.174;9.782;2023-06-10T08:18:29;95509.88;;;24.86;100.00
21658;BME280;10990;48.174;9.782;2023-06-10T08:20:56;95502.91;;;25.36;100.00
21658;BME280;10990;48.174;9.782;2023-06-10T08:23:23;95504.59;;;25.76;100.00
21658;BME280;10990;48.174;9.782;2023-06-10T08:25:50;95502.09;;;26.30;100.00
21658;BME280;10990;48.174;9.782;2023-06-10T08:28:18;95515.97;;;25.56;100.00
21658;BME280;10990;48.174;9.782;2023-06-10T08:30:45;95502.84;;;26.03;100.00
21658;BME280;10990;48.174;9.782;2023-06-10T08:33:11;95517.69;;;24.99;100.00
21658;BME280;10990;48.174;9.782;2023-06-10T08:35:38;95512.91;;;25.69;100.00
21658;BME280;10990;48.174;9.782;2023-06-10T08:38:05;95513.56;;;26.15;100.00
21658;BME280;10990;48.174;9.782;2023-06-10T08:40:32;95504.06;;;26.78;100.00
21658;BME280;10990;48.174;9.782;2023-06-10T08:43:03;95508.63;;;26.51;100.00
21658;BME280;10990;48.174;9.782;2023-06-10T08:45:35;95512.81;;;25.98;100.00
21658;BME280;10990;48.174;9.782;2023-06-10T08:48:02;95517.56;;;26.07;100.00
21658;BME280;10990;48.174;9.782;2023-06-10T08:50:34;95518.63;;;26.06;100.00
21658;BME280;10990;48.174;9.782;2023-06-10T08:53:01;95501.84;;;26.31;100.00
21658;BME280;10990;48.174;9.782;2023-06-10T08:55:33;95517.16;;;25.99;100.00
21658;BME280;10990;48.174;9.782;2023-06-10T08:58:00;95508.94;;;26.10;100.00
21658;BME280;10990;48.174;9.782;2023-06-10T09:00:28;95506.66;;;26.02;100.00
21658;BME280;10990;48.174;9.782;2023-06-10T09:02:56;95495.88;;;26.07;100.00
21658;BME280;10990;48.174;9.782;2023-06-10T09:05:24;95503.97;;;25.85;100.00
21658;BME280;10990;48.174;9.782;2023-06-10T09:07:52;95497.34;;;25.98;100.00
21658;BME280;10990;48.174;9.782;2023-06-10T09:10:19;95497.75;;;26.29;100.00
21658;BME280;10990;48.174;9.782;2023-06-10T09:12:46;95503.63;;;25.48;100.00
21658;BME280;10990;48.174;9.782;2023-06-10T09:15:13;95514.28;;;25.04;100.00
21658;BME280;10990;48.174;9.782;2023-06-10T09:17:40;95500.53;;;25.39;100.00
21658;BME280;10990;48.174;9.782;2023-06-10T09:20:09;95494.38;;;26.16;100.00
21658;BME280;10990;48.174;9.782;2023-06-10T09:22:37;95496.13;;;26.06;100.00
21658;BME280;10990;48.174;9.782;2023-06-10T09:25:04;95504.22;;;25.50;100.00
21658;BME280;10990;48.174;9.782;2023-06-10T09:27:32;95505.13;;;25.22;100.00
21658;BME280;10990;48.174;9.782;2023-06-10T09:29:59;95503.97;;;24.72;100.00
21658;BME280;10990;48.174;9.782;2023-06-10T09:32:26;95506.00;;;24.65;100.00
21658;BME280;10990;48.174;9.782;2023-06-10T09:34:53;95500.56;;;25.78;100.00
21658;BME280;10990;48.174;9.782;2023-06-10T09:37:23;95498.00;;;25.49;100.00
21658;BME280;10990;48.174;9.782;2023-06-10T09:40:03;95508.66;;;25.22;100.00
21658;BME280;10990;48.174;9.782;2023-06-10T09:42:32;95498.31;;;25.53;100.00
21658;BME280;10990;48.174;9.782;2023-06-10T09:45:00;95502.91;;;25.86;100.00
21658;BME280;10990;48.174;9.782;2023-06-10T09:47:27;95498.88;;;25.72;100.00
21658;BME280;10990;48.174;9.782;2023-06-10T09:49:54;95504.97;;;25.62;100.00
21658;BME280;10990;48.174;9.782;2023-06-10T09:52:26;95508.88;;;25.04;100.00
21658;BME280;10990;48.174;9.782;2023-06-10T09:54:53;95509.66;;;24.88;100.00
21658;BME280;10990;48.174;9.782;2023-06-10T09:57:21;95520.09;;;24.67;100.00
21658;BME280;10990;48.174;9.782;2023-06-10T09:59:52;95504.59;;;25.08;100.00
21658;BME280;10990;48.174;9.782;2023-06-10T10:02:20;95504.00;;;25.35;100.00
21658;BME280;10990;48.174;9.782;2023-06-10T10:04:46;95504.31;;;25.38;100.00
21658;BME280;10990;48.174;9.782;2023-06-10T10:07:13;95504.38;;;25.94;100.00
21658;BME280;10990;48.174;9.782;2023-06-10T10:09:42;95500.75;;;25.71;100.00
21658;BME280;10990;48.174;9.782;2023-06-10T10:12:11;95498.47;;;25.63;100.00
21658;BME280;10990;48.174;9.782;2023-06-10T10:14:39;95515.47;;;25.59;100.00
21658;BME280;10990;48.174;9.782;2023-06-10T10:17:09;95507.91;;;25.78;100.00
21658;BME280;10990;48.174;9.782;2023-06-10T10:19:41;95508.75;;;25.27;100.00
21658;BME280;10990;48.174;9.782;2023-06-10T10:22:15;95496.84;;;26.01;100.00
21658;BME280;10990;48.174;9.782;2023-06-10T10:24:49;95492.13;;;25.91;100.00
21658;BME280;10990;48.174;9.782;2023-06-10T10:27:20;95498.44;;;25.97;100.00
21658;BME280;10990;48.174;9.782;2023-06-10T10:29:48;95497.38;;;25.81;100.00
21658;BME280;10990;48.174;9.782;2023-06-10T10:32:18;95496.59;;;25.64;100.00
21658;BME280;10990;48.174;9.782;2023-06-10T10:34:52;95504.63;;;25.59;100.00
21658;BME280;10990;48.174;9.782;2023-06-10T10:37:20;95507.03;;;25.38;100.00
21658;BME280;10990;48.174;9.782;2023-06-10T10:39:48;95499.47;;;24.78;100.00
21658;BME280;10990;48.174;9.782;2023-06-10T10:42:16;95502.66;;;24.75;100.00
21658;BME280;10990;48.174;9.782;2023-06-10T10:44:44;95505.66;;;25.07;100.00
21658;BME280;10990;48.174;9.782;2023-06-10T10:47:12;95510.38;;;24.54;100.00
21658;BME280;10990;48.174;9.782;2023-06-10T10:49:43;95505.81;;;24.83;100.00
21658;BME280;10990;48.174;9.782;2023-06-10T10:52:11;95499.50;;;24.95;100.00
21658;BME280;10990;48.174;9.782;2023-06-10T10:54:43;95488.88;;;25.39;100.00
21658;BME280;10990;48.174;9.782;2023-06-10T10:57:13;95500.03;;;24.80;100.00
21658;BME280;10990;48.174;9.782;2023-06-10T10:59:44;95496.00;;;25.45;100.00
21658;BME280;10990;48.174;9.782;2023-06-10T11:02:15;95501.28;;;25.35;100.00
21658;BME280;10990;48.174;9.782;2023-06-10T11:04:45;95503.50;;;25.21;100.00
21658;BME280;10990;48.174;9.782;2023-06-10T11:07:12;95491.31;;;24.90;100.00
21658;BME280;10990;48.174;9.782;2023-06-10T11:09:58;95503.63;;;24.69;100.00
21658;BME280;10990;48.174;9.782;2023-06-10T11:12:42;95486.38;;;24.87;100.00
21658;BME280;10990;48.174;9.782;2023-06-10T11:15:09;95490.88;;;25.43;100.00
21658;BME280;10990;48.174;9.782;2023-06-10T11:17:35;95494.16;;;25.00;100.00
21658;BME280;10990;48.174;9.782;2023-06-10T11:20:03;95486.66;;;25.36;100.00
21658;BME280;10990;48.174;9.782;2023-06-10T11:22:30;95492.22;;;24.95;100.00
21658;BME280;10990;48.174;9.782;2023-06-10T11:24:57;95490.84;;;25.60;100.00
21658;BME280;10990;48.174;9.782;2023-06-10T11:27:24;95491.91;;;25.25;100.00
21658;BME280;10990;48.174;9.782;2023-06-10T11:30:20;95489.97;;;25.38;100.00
21658;BME280;10990;48.174;9.782;2023-06-10T11:32:51;95493.75;;;25.08;100.00
21658;BME280;10990;48.174;9.782;2023-06-10T11:35:19;95490.50;;;25.06;100.00
21658;BME280;10990;48.174;9.782;2023-06-10T11:37:47;95486.75;;;25.24;100.00
21658;BME280;10990;48.174;9.782;2023-06-10T11:40:15;95481.25;;;24.73;100.00
21658;BME280;10990;48.174;9.782;2023-06-10T11:42:42;95478.94;;;25.44;100.00
21658;BME280;10990;48.174;9.782;2023-06-10T11:45:09;95481.78;;;24.87;100.00
21658;BME280;10990;48.174;9.782;2023-06-10T11:47:38;95481.91;;;24.80;100.00
21658;BME280;10990;48.174;9.782;2023-06-10T11:50:05;95477.03;;;25.62;100.00
21658;BME280;10990;48.174;9.782;2023-06-10T11:52:32;95482.88;;;25.37;100.00
21658;BME280;10990;48.174;9.782;2023-06-10T11:55:04;95479.22;;;25.26;100.00
21658;BME280;10990;48.174;9.782;2023-06-10T11:57:33;95480.13;;;25.48;100.00
21658;BME280;10990;48.174;9.782;2023-06-10T12:00:04;95485.22;;;24.82;100.00
21658;BME280;10990;48.174;9.782;2023-06-10T12:02:38;95482.03;;;24.57;100.00
21658;BME280;10990;48.174;9.782;2023-06-10T12:05:11;95486.94;;;25.05;100.00
21658;BME280;10990;48.174;9.782;2023-06-10T12:07:38;95475.75;;;25.31;100.00
21658;BME280;10990;48.174;9.782;2023-06-10T12:10:05;95479.75;;;25.11;100.00
21658;BME280;10990;48.174;9.782;2023-06-10T12:12:34;95470.66;;;25.68;100.00
21658;BME280;10990;48.174;9.782;2023-06-10T12:15:02;95457.72;;;26.14;100.00
21658;BME280;10990;48.174;9.782;2023-06-10T12:17:38;95452.66;;;26.45;100.00
21658;BME280;10990;48.174;9.782;2023-06-10T12:20:06;95457.44;;;25.55;100.00
21658;BME280;10990;48.174;9.782;2023-06-10T12:22:37;95462.31;;;25.36;100.00
21658;BME280;10990;48.174;9.782;2023-06-10T12:25:06;95462.19;;;25.64;100.00
21658;BME280;10990;48.174;9.782;2023-06-10T12:27:33;95463.09;;;25.02;100.00
21658;BME280;10990;48.174;9.782;2023-06-10T12:30:00;95464.09;;;25.47;100.00
21658;BME280;10990;48.174;9.782;2023-06-10T12:32:38;95464.19;;;25.35;100.00
21658;BME280;10990;48.174;9.782;2023-06-10T12:35:06;95454.94;;;25.87;100.00
21658;BME280;10990;48.174;9.782;2023-06-10T12:37:33;95449.53;;;25.70;100.00
21658;BME280;10990;48.174;9.782;2023-06-10T12:40:02;95450.09;;;25.89;100.00
21658;BME280;10990;48.174;9.782;2023-06-10T12:42:29;95448.88;;;25.80;100.00
21658;BME280;10990;48.174;9.782;2023-06-10T12:44:56;95452.25;;;25.70;100.00
21658;BME280;10990;48.174;9.782;2023-06-10T12:47:29;95456.53;;;25.66;100.00
21658;BME280;10990;48.174;9.782;2023-06-10T12:49:58;95453.84;;;24.98;100.00
21658;BME280;10990;48.174;9.782;2023-06-10T12:52:25;95449.81;;;25.01;100.00
21658;BME280;10990;48.174;9.782;2023-06-10T12:54:52;95439.47;;;25.65;100.00
21658;BME280;10990;48.174;9.782;2023-06-10T12:57:19;95438.00;;;25.58;100.00